createdAt,value
2019-03-21T00:00:12.668Z,96314.45
2019-03-21T00:02:46.491Z,96312.42
2019-03-21T00:05:18.818Z,96310.86
2019-03-21T00:07:51.024Z,96311.67
2019-03-21T00:10:55.046Z,96307.85
2019-03-21T00:13:27.290Z,96307.62
2019-03-21T00:16:01.826Z,96303.73
2019-03-21T00:18:34.032Z,96308.34
2019-03-21T00:21:06.434Z,96301.58
2019-03-21T00:23:38.374Z,96300.28
2019-03-21T00:26:10.502Z,96299.95
2019-03-21T00:28:43.838Z,96297.09
2019-03-21T00:31:16.126Z,96294.39
2019-03-21T00:33:48.641Z,96289.73
2019-03-21T00:36:20.601Z,96288.08
2019-03-21T00:38:52.859Z,96296.72
2019-03-21T00:41:24.746Z,96300.29
2019-03-21T00:43:56.696Z,96302.30
2019-03-21T00:46:28.854Z,96296.72
2019-03-21T00:49:01.023Z,96296.70
2019-03-21T00:51:33.088Z,96297.28
2019-03-21T00:54:05.261Z,96284.34
2019-03-21T00:56:37.266Z,96293.27
2019-03-21T00:59:09.281Z,96291.82
2019-03-21T01:01:41.499Z,96295.02
2019-03-21T01:04:13.354Z,96288.73
2019-03-21T01:06:45.571Z,96283.20
2019-03-21T01:09:17.661Z,96276.32
2019-03-21T01:11:49.853Z,96279.77
2019-03-21T01:14:29.839Z,96286.14
2019-03-21T01:16:55.412Z,96285.45
2019-03-21T01:19:27.374Z,96292.19
2019-03-21T01:21:59.320Z,96290.05
2019-03-21T01:24:31.239Z,96296.81
2019-03-21T01:27:03.364Z,96294.78
2019-03-21T01:29:35.197Z,96297.37
2019-03-21T01:32:07.087Z,96300.56
2019-03-21T01:34:39.237Z,96296.50
2019-03-21T01:37:11.518Z,96306.19
2019-03-21T01:39:43.735Z,96299.40
2019-03-21T01:42:15.832Z,96306.58
2019-03-21T01:44:47.930Z,96306.40
2019-03-21T01:47:20.374Z,96305.47
2019-03-21T01:49:52.283Z,96312.44
2019-03-21T01:52:24.239Z,96311.69
2019-03-21T01:54:56.326Z,96311.73
2019-03-21T01:57:28.522Z,96313.14
2019-03-21T02:00:00.745Z,96320.61
2019-03-21T02:02:34.042Z,96319.48
2019-03-21T02:05:06.421Z,96327.00
2019-03-21T02:07:38.625Z,96321.45
2019-03-21T02:10:13.263Z,96324.56
2019-03-21T02:12:45.517Z,96323.94
2019-03-21T02:15:17.845Z,96326.02
2019-03-21T02:17:50.068Z,96334.27
2019-03-21T02:20:23.134Z,96328.73
2019-03-21T02:22:55.194Z,96334.08
2019-03-21T02:25:29.023Z,96331.92
2019-03-21T02:28:01.297Z,96329.50
2019-03-21T02:30:35.133Z,96326.48
2019-03-21T02:33:22.449Z,96331.67
2019-03-21T02:35:54.618Z,96328.36
2019-03-21T02:38:26.647Z,96331.55
2019-03-21T02:40:59.107Z,96337.09
2019-03-21T02:43:31.401Z,96331.20
2019-03-21T02:46:03.284Z,96331.28
2019-03-21T02:48:35.246Z,96331.56
2019-03-21T02:51:07.626Z,96330.38
2019-03-21T02:53:39.844Z,96325.41
2019-03-21T02:56:13.548Z,96335.84
2019-03-21T02:58:45.423Z,96340.21
2019-03-21T03:01:17.237Z,96338.38
2019-03-21T03:03:50.199Z,96338.19
2019-03-21T03:06:22.165Z,96338.08
2019-03-21T03:08:54.387Z,96339.68
2019-03-21T03:11:26.904Z,96336.81
2019-03-21T03:13:58.918Z,96337.56
2019-03-21T03:16:31.101Z,96336.62
2019-03-21T03:19:03.262Z,96336.09
2019-03-21T03:21:35.020Z,96340.73
2019-03-21T03:24:07.904Z,96334.73
2019-03-21T03:26:39.803Z,96338.62
2019-03-21T03:29:11.732Z,96337.20
2019-03-21T03:31:43.509Z,96333.38
2019-03-21T03:34:15.693Z,96338.91
2019-03-21T03:36:47.906Z,96338.75
2019-03-21T03:39:20.108Z,96345.75
2019-03-21T03:41:52.162Z,96349.13
2019-03-21T03:44:24.111Z,96353.66
2019-03-21T03:46:56.063Z,96351.95
2019-03-21T03:49:28.349Z,96355.13
2019-03-21T03:52:00.508Z,96355.28
2019-03-21T03:54:32.585Z,96353.82
2019-03-21T03:57:04.374Z,96348.55
2019-03-21T03:59:36.484Z,96353.05
2019-03-21T04:02:08.439Z,96351.30
2019-03-21T04:04:40.750Z,96357.11
2019-03-21T04:07:12.755Z,96353.68
2019-03-21T04:09:44.782Z,96358.98
2019-03-21T04:12:16.950Z,96354.22
2019-03-21T04:14:48.894Z,96352.91
2019-03-21T04:17:20.726Z,96367.36
2019-03-21T04:19:52.748Z,96366.06
2019-03-21T04:22:24.826Z,96368.66
2019-03-21T04:24:56.857Z,96371.81
2019-03-21T04:27:28.994Z,96373.97
2019-03-21T04:30:00.871Z,96376.52
2019-03-21T04:32:33.059Z,96382.78
2019-03-21T04:35:04.939Z,96383.94
2019-03-21T04:37:36.709Z,96384.38
2019-03-21T04:40:09.212Z,96386.42
2019-03-21T04:42:41.452Z,96389.73
2019-03-21T04:45:16.572Z,96392.03
2019-03-21T04:47:48.622Z,96399.83
2019-03-21T04:50:23.232Z,96397.11
2019-03-21T04:52:55.406Z,96402.55
2019-03-21T04:55:27.649Z,96399.41
2019-03-21T04:57:59.746Z,96405.15
2019-03-21T05:00:32.830Z,96408.28
2019-03-21T05:03:05.624Z,96410.03
2019-03-21T05:05:37.467Z,96414.28
2019-03-21T05:08:09.433Z,96411.45
2019-03-21T05:10:41.411Z,96413.83
2019-03-21T05:13:13.640Z,96418.58
2019-03-21T05:15:45.791Z,96422.66
2019-03-21T05:18:29.900Z,96420.05
2019-03-21T05:21:03.017Z,96422.50
2019-03-21T05:23:34.863Z,96424.86
2019-03-21T05:26:06.750Z,96431.52
2019-03-21T05:28:38.617Z,96427.75
2019-03-21T05:31:15.767Z,96427.92
2019-03-21T05:33:47.595Z,96430.02
2019-03-21T05:36:19.766Z,96435.30
2019-03-21T05:38:51.722Z,96436.50
2019-03-21T05:41:23.841Z,96444.04
2019-03-21T05:44:02.481Z,96443.44
2019-03-21T05:46:34.683Z,96442.58
2019-03-21T05:49:06.682Z,96443.25
2019-03-21T05:51:38.471Z,96439.63
2019-03-21T05:54:10.630Z,96442.70
2019-03-21T05:56:42.455Z,96445.52
2019-03-21T05:59:14.274Z,96444.52
2019-03-21T06:01:47.028Z,96445.05
2019-03-21T06:04:18.881Z,96451.13
2019-03-21T06:07:30.873Z,96454.39
2019-03-21T06:10:02.845Z,96458.54
2019-03-21T06:12:42.633Z,96457.94
2019-03-21T06:15:15.867Z,96466.03
2019-03-21T06:17:52.992Z,96464.70
2019-03-21T06:21:05.117Z,96463.08
2019-03-21T06:23:57.257Z,96467.95
2019-03-21T06:26:50.431Z,96464.72
2019-03-21T06:29:22.372Z,96468.75
2019-03-21T06:31:54.334Z,96470.01
2019-03-21T06:34:26.436Z,96465.08
2019-03-21T06:36:58.247Z,96474.50
2019-03-21T06:39:30.333Z,96472.17
2019-03-21T06:42:02.375Z,96469.95
2019-03-21T06:44:34.311Z,96475.31
2019-03-21T06:47:06.258Z,96480.56
2019-03-21T06:49:38.020Z,96481.98
2019-03-21T06:52:09.874Z,96483.16
2019-03-21T06:54:42.076Z,96492.59
2019-03-21T06:57:14.114Z,96495.28
2019-03-21T06:59:46.370Z,96488.29
2019-03-21T07:02:18.323Z,96495.09
2019-03-21T07:04:50.377Z,96499.09
2019-03-21T07:07:24.121Z,96505.30
2019-03-21T07:09:56.947Z,96502.69
2019-03-21T07:12:28.927Z,96510.71
2019-03-21T07:15:01.177Z,96504.11
2019-03-21T07:17:33.430Z,96513.09
2019-03-21T07:20:06.199Z,96517.30
2019-03-21T07:22:38.598Z,96518.55
2019-03-21T07:25:11.384Z,96518.31
2019-03-21T07:27:43.599Z,96524.16
2019-03-21T07:30:15.869Z,96524.32
2019-03-21T07:32:47.948Z,96522.21
2019-03-21T07:35:20.335Z,96527.30
2019-03-21T07:37:52.239Z,96524.28
2019-03-21T07:40:24.676Z,96528.40
2019-03-21T07:42:56.787Z,96523.88
2019-03-21T07:45:29.019Z,96530.91
2019-03-21T07:48:01.256Z,96532.28
2019-03-21T07:50:33.628Z,96534.20
2019-03-21T07:53:05.842Z,96530.50
2019-03-21T07:55:38.064Z,96540.13
2019-03-21T07:58:10.049Z,96535.96
2019-03-21T08:00:42.709Z,96525.72
2019-03-21T08:03:14.898Z,96535.48
2019-03-21T08:05:46.975Z,96534.39
2019-03-21T08:08:18.858Z,96538.06
2019-03-21T08:10:50.800Z,96532.41
2019-03-21T08:13:22.943Z,96536.70
2019-03-21T08:15:55.159Z,96536.38
2019-03-21T08:18:26.906Z,96533.59
2019-03-21T08:21:00.295Z,96540.44
2019-03-21T08:23:32.296Z,96539.13
2019-03-21T08:26:04.531Z,96537.68
2019-03-21T08:28:36.595Z,96540.28
2019-03-21T08:31:33.185Z,96545.79
2019-03-21T08:34:05.590Z,96543.53
2019-03-21T08:36:37.678Z,96546.05
2019-03-21T08:39:10.398Z,96548.11
2019-03-21T08:41:42.616Z,96544.10
2019-03-21T08:44:14.456Z,96540.55
2019-03-21T08:46:46.289Z,96545.84
2019-03-21T08:49:18.406Z,96549.00
2019-03-21T08:51:50.321Z,96546.99
2019-03-21T08:54:22.597Z,96546.95
2019-03-21T08:56:54.868Z,96552.25
2019-03-21T08:59:26.722Z,96553.30
2019-03-21T09:01:58.865Z,96552.30
2019-03-21T09:04:30.897Z,96550.00
2019-03-21T09:07:03.147Z,96547.14
2019-03-21T09:09:35.437Z,96551.41
2019-03-21T09:12:07.668Z,96548.98
2019-03-21T09:14:39.483Z,96548.61
2019-03-21T09:17:11.612Z,96544.37
2019-03-21T09:19:43.653Z,96548.84
2019-03-21T09:22:16.198Z,96544.75
2019-03-21T09:24:48.242Z,96545.95
2019-03-21T09:27:20.425Z,96547.61
2019-03-21T09:29:53.769Z,96547.73
2019-03-21T09:32:25.972Z,96542.98
2019-03-21T09:34:58.105Z,96544.78
2019-03-21T09:37:30.014Z,96547.63
2019-03-21T09:40:03.174Z,96543.71
2019-03-21T09:42:35.187Z,96542.53
2019-03-21T09:45:08.253Z,96539.92
2019-03-21T09:47:40.212Z,96544.02
2019-03-21T09:50:14.652Z,96538.94
2019-03-21T09:52:46.629Z,96540.80
2019-03-21T09:55:18.721Z,96541.64
2019-03-21T09:57:50.728Z,96542.37
2019-03-21T10:00:34.161Z,96544.00
2019-03-21T10:03:06.648Z,96546.84
2019-03-21T10:05:38.716Z,96547.68
2019-03-21T10:08:10.740Z,96546.64
2019-03-21T10:10:42.577Z,96549.23
2019-03-21T10:13:14.483Z,96545.47
2019-03-21T10:15:46.460Z,96544.86
2019-03-21T10:18:18.405Z,96536.21
2019-03-21T10:20:50.265Z,96530.30
2019-03-21T10:23:22.150Z,96528.71
2019-03-21T10:25:55.879Z,96522.07
2019-03-21T10:28:27.588Z,96513.52
2019-03-21T10:30:59.338Z,96511.59
2019-03-21T10:33:30.905Z,96516.00
2019-03-21T10:36:02.517Z,96499.20
2019-03-21T10:38:34.276Z,96508.08
2019-03-21T10:41:06.029Z,96493.23
2019-03-21T10:43:37.900Z,96489.78
2019-03-21T10:46:09.473Z,96481.84
2019-03-21T10:48:41.217Z,96482.09
2019-03-21T10:51:12.913Z,96479.22
2019-03-21T10:53:44.436Z,96477.29
2019-03-21T10:56:16.346Z,96467.15
2019-03-21T10:58:48.109Z,96468.55
2019-03-21T11:01:19.888Z,96462.37
2019-03-21T11:03:51.682Z,96466.59
2019-03-21T11:06:23.426Z,96458.75
2019-03-21T11:08:55.305Z,96460.98
2019-03-21T11:11:27.252Z,96449.34
2019-03-21T11:13:59.082Z,96451.67
2019-03-21T11:16:31.574Z,96447.02
2019-03-21T11:19:03.489Z,96443.41
2019-03-21T11:21:36.138Z,96439.45
2019-03-21T11:24:07.830Z,96438.31
2019-03-21T11:26:39.646Z,96437.28
2019-03-21T11:29:11.193Z,96436.94
2019-03-21T11:31:42.830Z,96433.95
2019-03-21T11:34:14.528Z,96434.33
2019-03-21T11:36:45.963Z,96425.06
2019-03-21T11:39:17.742Z,96417.95
2019-03-21T11:41:49.404Z,96412.30
2019-03-21T11:44:22.107Z,96408.19
2019-03-21T11:46:53.663Z,96403.20
2019-03-21T11:49:25.161Z,96403.20
2019-03-21T11:51:56.912Z,96398.59
2019-03-21T11:54:28.463Z,96376.86
2019-03-21T11:56:59.956Z,96383.22
2019-03-21T11:59:46.185Z,96389.24
2019-03-21T12:02:05.024Z,96385.91
2019-03-21T12:04:36.628Z,96385.91
2019-03-21T12:07:08.524Z,96374.31
2019-03-21T12:09:40.242Z,96371.04
2019-03-21T12:12:11.919Z,96365.30
2019-03-21T12:14:43.441Z,96360.12
2019-03-21T12:17:15.013Z,96364.87
2019-03-21T12:19:46.701Z,96364.87
2019-03-21T12:22:29.146Z,96364.69
2019-03-21T12:24:51.804Z,96365.31
2019-03-21T12:27:23.866Z,96362.38
2019-03-21T12:29:55.640Z,96363.14
2019-03-21T12:32:27.598Z,96360.98
2019-03-21T12:35:00.429Z,96366.80
2019-03-21T12:37:32.170Z,96360.69
2019-03-21T12:40:03.735Z,96355.95
2019-03-21T12:42:36.555Z,96359.69
2019-03-21T12:45:10.502Z,96350.10
2019-03-21T12:47:42.230Z,96349.72
2019-03-21T12:50:14.067Z,96345.58
2019-03-21T12:52:45.893Z,96344.27
2019-03-21T12:55:17.768Z,96344.25
2019-03-21T12:57:49.679Z,96337.52
2019-03-21T13:00:46.947Z,96338.11
2019-03-21T13:03:18.557Z,96338.11
2019-03-21T13:05:50.082Z,96328.95
2019-03-21T13:08:33.080Z,96325.09
2019-03-21T13:10:55.016Z,96321.66
2019-03-21T13:13:26.631Z,96323.36
2019-03-21T13:15:58.680Z,96318.60
2019-03-21T13:18:30.710Z,96326.45
2019-03-21T13:21:02.889Z,96326.06
2019-03-21T13:23:34.790Z,96322.39
2019-03-21T13:26:06.720Z,96313.26
2019-03-21T13:28:38.251Z,96313.10
2019-03-21T13:31:10.245Z,96309.50
2019-03-21T13:33:42.340Z,96301.58
2019-03-21T13:36:15.369Z,96295.40
2019-03-21T13:38:47.126Z,96304.61
2019-03-21T13:41:19.901Z,96304.59
2019-03-21T13:43:51.717Z,96296.58
2019-03-21T13:46:23.225Z,96288.45
2019-03-21T13:48:54.813Z,96288.45
2019-03-21T13:51:26.592Z,96295.84
2019-03-21T13:53:58.045Z,96295.64
2019-03-21T13:56:37.785Z,96292.19
2019-03-21T13:59:02.923Z,96290.54
2019-03-21T14:01:34.669Z,96294.14
2019-03-21T14:04:06.363Z,96294.38
2019-03-21T14:06:38.115Z,96289.55
2019-03-21T14:09:10.088Z,96290.28
2019-03-21T14:11:41.611Z,96286.32
2019-03-21T14:14:13.073Z,96282.27
2019-03-21T14:16:44.599Z,96282.20
2019-03-21T14:19:16.176Z,96276.71
2019-03-21T14:21:48.221Z,96269.83
2019-03-21T14:24:20.163Z,96264.03
2019-03-21T14:26:51.687Z,96268.20
2019-03-21T14:29:23.311Z,96276.25
2019-03-21T14:31:54.791Z,96271.41
2019-03-21T14:34:26.459Z,96275.91
2019-03-21T14:36:58.071Z,96271.65
2019-03-21T14:39:30.236Z,96269.41
2019-03-21T14:42:01.954Z,96268.17
2019-03-21T14:44:33.872Z,96269.55
2019-03-21T14:47:05.708Z,96262.22
2019-03-21T14:49:37.652Z,96274.80
2019-03-21T14:52:09.401Z,96268.44
2019-03-21T14:54:41.213Z,96269.48
2019-03-21T14:57:13.182Z,96275.05
2019-03-21T14:59:45.051Z,96275.13
2019-03-21T15:02:16.724Z,96273.13
2019-03-21T15:04:48.310Z,96271.81
2019-03-21T15:07:20.004Z,96268.72
2019-03-21T15:09:51.720Z,96266.77
2019-03-21T15:12:23.395Z,96270.44
2019-03-21T15:14:54.962Z,96266.31
2019-03-21T15:17:26.794Z,96270.29
2019-03-21T15:19:58.601Z,96270.09
2019-03-21T15:22:30.191Z,96273.94
2019-03-21T15:25:01.642Z,96282.14
2019-03-21T15:27:33.722Z,96278.95
2019-03-21T15:30:06.438Z,96276.39
2019-03-21T15:32:38.193Z,96281.53
2019-03-21T15:35:11.198Z,96280.67
2019-03-21T15:37:42.984Z,96281.98
2019-03-21T15:40:15.471Z,96280.23
2019-03-21T15:42:47.032Z,96291.52
2019-03-21T15:45:23.607Z,96280.81
2019-03-21T15:47:52.425Z,96284.17
2019-03-21T15:50:32.026Z,96281.77
2019-03-21T15:53:03.639Z,96281.53
2019-03-21T15:55:35.412Z,96288.35
2019-03-21T15:58:07.333Z,96287.61
2019-03-21T16:00:40.653Z,96290.60
2019-03-21T16:03:13.241Z,96292.08
2019-03-21T16:05:45.047Z,96296.00
2019-03-21T16:08:16.574Z,96295.63
2019-03-21T16:10:48.493Z,96295.90
2019-03-21T16:13:20.391Z,96297.82
2019-03-21T16:15:52.198Z,96297.59
2019-03-21T16:18:25.138Z,96300.67
2019-03-21T16:20:57.231Z,96303.56
2019-03-21T16:23:29.167Z,96300.77
2019-03-21T16:26:00.948Z,96306.82
2019-03-21T16:28:32.682Z,96313.13
2019-03-21T16:31:04.542Z,96314.33
2019-03-21T16:33:36.402Z,96320.38
2019-03-21T16:36:08.313Z,96322.77
2019-03-21T16:38:40.218Z,96324.12
2019-03-21T16:41:11.966Z,96325.42
2019-03-21T16:43:43.848Z,96321.07
2019-03-21T16:46:15.659Z,96330.32
2019-03-21T16:48:47.529Z,96326.17
2019-03-21T16:51:19.161Z,96337.94
2019-03-21T16:53:50.946Z,96338.17
2019-03-21T16:56:23.049Z,96341.48
2019-03-21T16:58:55.751Z,96347.57
2019-03-21T17:01:27.988Z,96349.33
2019-03-21T17:03:59.842Z,96343.67
2019-03-21T17:06:31.773Z,96346.50
2019-03-21T17:09:04.210Z,96354.92
2019-03-21T17:11:36.514Z,96354.59
2019-03-21T17:14:08.647Z,96361.71
2019-03-21T17:16:40.666Z,96366.69
2019-03-21T17:19:12.535Z,96367.77
2019-03-21T17:21:44.569Z,96371.34
2019-03-21T17:24:28.435Z,96376.43
2019-03-21T17:26:50.339Z,96382.47
2019-03-21T17:29:28.561Z,96380.92
2019-03-21T17:32:03.036Z,96382.56
2019-03-21T17:34:35.238Z,96392.16
2019-03-21T17:37:07.202Z,96391.00
2019-03-21T17:39:39.124Z,96384.96
2019-03-21T17:42:10.987Z,96390.52
2019-03-21T17:44:43.002Z,96391.50
2019-03-21T17:47:14.864Z,96391.73
2019-03-21T17:49:46.879Z,96402.77
2019-03-21T17:52:19.134Z,96402.39
2019-03-21T17:54:51.228Z,96399.21
2019-03-21T17:57:34.056Z,96404.07
2019-03-21T17:59:56.877Z,96397.76
2019-03-21T18:02:28.824Z,96406.28
2019-03-21T18:05:01.114Z,96400.86
2019-03-21T18:07:32.850Z,96402.38
2019-03-21T18:10:05.463Z,96403.47
2019-03-21T18:12:37.691Z,96405.00
2019-03-21T18:15:09.978Z,96400.52
2019-03-21T18:17:41.815Z,96403.83
2019-03-21T18:20:13.914Z,96404.65
2019-03-21T18:22:45.970Z,96396.13
2019-03-21T18:25:18.055Z,96404.30
2019-03-21T18:27:50.453Z,96404.08
2019-03-21T18:30:22.557Z,96403.81
2019-03-21T18:32:54.740Z,96402.03
2019-03-21T18:35:27.001Z,96401.82
2019-03-21T18:38:00.169Z,96402.50
2019-03-21T18:40:32.178Z,96402.98
2019-03-21T18:43:04.465Z,96405.00
2019-03-21T18:45:36.486Z,96404.17
2019-03-21T18:48:08.576Z,96407.12
2019-03-21T18:50:40.373Z,96405.48
2019-03-21T18:53:12.298Z,96409.04
2019-03-21T18:55:44.285Z,96405.00
2019-03-21T18:58:16.703Z,96409.30
2019-03-21T19:00:48.556Z,96404.55
2019-03-21T19:03:20.406Z,96401.34
2019-03-21T19:05:52.327Z,96402.52
2019-03-21T19:08:24.384Z,96399.78
2019-03-21T19:10:56.398Z,96398.38
2019-03-21T19:13:28.309Z,96397.17
2019-03-21T19:16:00.209Z,96393.39
2019-03-21T19:18:32.959Z,96394.95
2019-03-21T19:21:04.897Z,96394.82
2019-03-21T19:23:36.764Z,96395.30
2019-03-21T19:26:08.804Z,96399.30
2019-03-21T19:28:40.871Z,96394.20
2019-03-21T19:31:13.058Z,96395.03
2019-03-21T19:33:45.230Z,96392.67
2019-03-21T19:36:17.269Z,96390.16
2019-03-21T19:38:49.167Z,96390.48
2019-03-21T19:41:21.376Z,96397.73
2019-03-21T19:43:53.659Z,96402.45
2019-03-21T19:46:25.467Z,96400.31
2019-03-21T19:48:57.549Z,96404.92
2019-03-21T19:51:29.597Z,96402.21
2019-03-21T19:54:01.464Z,96395.03
2019-03-21T19:56:33.637Z,96398.00
2019-03-21T19:59:05.709Z,96399.27
2019-03-21T20:01:37.790Z,96400.08
2019-03-21T20:04:09.881Z,96395.47
2019-03-21T20:06:41.718Z,96398.28
2019-03-21T20:09:13.618Z,96397.08
2019-03-21T20:11:45.610Z,96394.13
2019-03-21T20:14:17.511Z,96401.79
2019-03-21T20:16:49.389Z,96413.20
2019-03-21T20:19:21.455Z,96420.66
2019-03-21T20:21:53.361Z,96411.94
2019-03-21T20:24:25.488Z,96418.20
2019-03-21T20:26:57.456Z,96417.27
2019-03-21T20:29:29.258Z,96410.25
2019-03-21T20:32:01.068Z,96415.70
2019-03-21T20:34:33.148Z,96422.71
2019-03-21T20:37:05.332Z,96420.09
2019-03-21T20:39:37.371Z,96419.66
2019-03-21T20:42:09.526Z,96417.11
2019-03-21T20:44:41.658Z,96419.59
2019-03-21T20:47:13.626Z,96414.71
2019-03-21T20:49:45.730Z,96416.02
2019-03-21T20:52:17.682Z,96409.75
2019-03-21T20:54:53.315Z,96419.71
2019-03-21T20:57:25.638Z,96410.16
2019-03-21T20:59:57.763Z,96416.44
2019-03-21T21:02:29.676Z,96418.55
2019-03-21T21:05:01.679Z,96416.83
2019-03-21T21:07:33.905Z,96421.45
2019-03-21T21:10:07.656Z,96401.89
2019-03-21T21:12:39.892Z,96410.45
2019-03-21T21:15:12.338Z,96420.67
2019-03-21T21:17:44.449Z,96418.39
2019-03-21T21:20:16.641Z,96415.23
2019-03-21T21:22:48.639Z,96417.28
2019-03-21T21:25:20.629Z,96405.38
2019-03-21T21:27:52.963Z,96418.08
2019-03-21T21:30:25.155Z,96418.48
2019-03-21T21:32:57.294Z,96421.44
2019-03-21T21:35:29.273Z,96425.19
2019-03-21T21:38:01.131Z,96427.83
2019-03-21T21:40:34.549Z,96426.28
2019-03-21T21:43:06.564Z,96420.81
2019-03-21T21:45:39.538Z,96425.11
2019-03-21T21:48:11.512Z,96422.06
2019-03-21T21:50:43.564Z,96422.77
2019-03-21T21:53:15.322Z,96427.31
2019-03-21T21:55:47.281Z,96425.78
2019-03-21T21:58:19.098Z,96424.56
2019-03-21T22:00:51.080Z,96420.86
2019-03-21T22:03:23.307Z,96427.16
2019-03-21T22:05:55.605Z,96434.37
2019-03-21T22:08:27.939Z,96424.64
2019-03-21T22:11:00.103Z,96422.55
2019-03-21T22:13:32.236Z,96427.86
2019-03-21T22:16:04.152Z,96425.06
2019-03-21T22:18:36.195Z,96420.77
2019-03-21T22:21:08.213Z,96422.58
2019-03-21T22:23:40.400Z,96426.70
2019-03-21T22:26:12.536Z,96425.70
2019-03-21T22:28:44.639Z,96420.34
2019-03-21T22:31:16.976Z,96424.16
2019-03-21T22:33:48.926Z,96422.99
2019-03-21T22:36:21.129Z,96422.84
2019-03-21T22:38:53.003Z,96420.32
2019-03-21T22:41:24.939Z,96419.13
2019-03-21T22:43:56.852Z,96420.95
2019-03-21T22:46:28.884Z,96414.86
2019-03-21T22:49:00.670Z,96419.05
2019-03-21T22:51:32.748Z,96414.22
2019-03-21T22:54:04.603Z,96415.17
2019-03-21T22:56:41.142Z,96408.79
2019-03-21T22:59:10.207Z,96413.19
2019-03-21T23:01:42.372Z,96415.72
2019-03-21T23:04:14.324Z,96417.02
2019-03-21T23:06:46.459Z,96415.87
2019-03-21T23:09:18.226Z,96417.55
2019-03-21T23:11:50.187Z,96425.27
2019-03-21T23:14:22.191Z,96421.21
2019-03-21T23:16:54.435Z,96425.41
2019-03-21T23:19:26.396Z,96424.20
2019-03-21T23:21:58.859Z,96428.45
2019-03-21T23:24:32.250Z,96431.95
2019-03-21T23:27:04.678Z,96428.39
2019-03-21T23:29:36.802Z,96427.02
2019-03-21T23:32:08.747Z,96424.53
2019-03-21T23:34:40.759Z,96420.17
2019-03-21T23:37:12.789Z,96430.66
2019-03-21T23:39:44.814Z,96425.02
2019-03-21T23:42:17.077Z,96425.25
2019-03-21T23:44:49.297Z,96433.20
2019-03-21T23:47:21.484Z,96424.59
2019-03-21T23:49:53.550Z,96429.23
2019-03-21T23:52:25.729Z,96429.23
2019-03-21T23:54:57.862Z,96424.25
2019-03-21T23:57:30.122Z,96423.14
